Houlton, ME

02:46 EDT le 02 septembre 2014 (GMT -0400)
Houlton International | Change Station
CLOSE
Current Station
Aéroport
Location: Houlton,
Altitude: 492 ft
Stations météo à proximité

Alt. 492 ft 46.12 °N, 67.79 °W | Updated 7 minutes ago

Overcast
Couvert
65 ° F
Paraît 65 ° F
N
4
Vent Variable Vent de ESE

Aujourd'hui
Haut(e) -- | Bas -- ° F
--% Risque de précip.
Hier
Haut(e) -- | Bas -- ° F
Precip. -- pouce
5:52 AM 7:07 PM
Lune montante, 48% visible
Pression 29.93 pouce
Visibilité 5.0 Miles terrestres
Nuages Couvert 1000 ft
Point de rosée 63 ° F
Humidité 93%
Précipitations 0.00 pouce
Profondeur de la couche neigeuse Non disponible.
UV 0 sur 12
Pollen 4.30 sur 12
PM2.5 Bon
Flu Activity Non disponible.
SPECI KHUL 020639Z AUTO 12003KT 5SM BR OVC010 18/17 A2993 RMK AO2 T01830172

More Conditions Fewer Conditions

Pression 29.93 pouce
Visibilité 5.0 Miles terrestres
Nuages Couvert 1000 ft
Point de rosée 63 ° F
Humidité 93%
Précipitations 0.00 pouce
Profondeur de la couche neigeuse Non disponible.
UV 0 sur 12
Pollen 4.30 sur 12
PM2.5 Bon
Flu Activity Non disponible.
SPECI KHUL 020639Z AUTO 12003KT 5SM BR OVC010 18/17 A2993 RMK AO2 T01830172

More Conditions Fewer Conditions

10-Day Weather Forecast

Almanac

Astronomie

Sep. 02, 2014 Lever Coucher
Temps réel 05:52 EDT 19:07 EDT
Crépuscule civil 05:22 EDT 19:38 EDT
Crépuscule nautique 04:44 EDT 20:15 EDT
Crépuscule astronomique 04:05 EDT 20:55 EDT
Lune 13:57 EDT 23:34 EDT
Durée de lumière visible 14h 16m
Longueur du jour
13h 14m
Tomorrow will be 3m 10s shorter.
Lune montante, 48% of the Moon is Illuminated
Aujourd'hui
Lune montante
Sep 2
Premier quartier
Sep 8
Pleine lune
Sep 15
Dernier quartier
Sep 24
Nouveau

Extrêmes aujourd'hui

State Highs State Lows

Community

WunderPhotos

Upload Photos

1,749,589 Photos téléchargées !

WunderBlogs® & News

Nearby

Qualité de l'air

  Qualité de l'air Indice de la qualité de l'air Polluant
Hier Bon
PM2.5
Hier Bon
OZONE
Actuel Bon
PM2.5
mardi Bon
OZONE
mardi Bon
PM2.5
mercredi Bon
OZONE
mercredi Bon
PM2.5

Épaisseur de neige

Station Depth Altitude
Pas de nouvelles chutes de neige

Activité sismique

Ville Distance Mag. Time & Date
No recent earthquake activity has been reported nearby.
Minimum magnitude displayed is 2.5.

Températures des eaux côtières

Lieu Température
Aucun rapport de station

Stations météo à proximité